sensor_id;sensor_type;location;lat;lon;timestamp;P1;durP1;ratioP1;P2;durP2;ratioP2
38162;SDS011;23977;53.078;18.248;2023-10-31T07:29:04;8.57;;;4.95;;
38162;SDS011;23977;53.078;18.248;2023-10-31T07:31:29;11.07;;;5.20;;
38162;SDS011;23977;53.078;18.248;2023-10-31T13:16:11;2.42;;;1.73;;
38162;SDS011;23977;53.078;18.248;2023-10-31T13:18:42;3.30;;;1.60;;
38162;SDS011;23977;53.078;18.248;2023-10-31T13:21:37;3.30;;;1.65;;
38162;SDS011;23977;53.078;18.248;2023-10-31T13:24:15;2.28;;;1.50;;
38162;SDS011;23977;53.078;18.248;2023-10-31T13:27:06;4.53;;;2.40;;
38162;SDS011;23977;53.078;18.248;2023-10-31T13:29:59;2.90;;;1.95;;
38162;SDS011;23977;53.078;18.248;2023-10-31T13:48:51;3.45;;;2.10;;
38162;SDS011;23977;53.078;18.248;2023-10-31T13:51:24;3.33;;;1.80;;
38162;SDS011;23977;53.078;18.248;2023-10-31T13:56:49;3.40;;;1.95;;
38162;SDS011;23977;53.078;18.248;2023-10-31T13:59:21;3.25;;;1.60;;
38162;SDS011;23977;53.078;18.248;2023-10-31T14:01:53;3.60;;;2.00;;
38162;SDS011;23977;53.078;18.248;2023-10-31T14:10:04;2.50;;;1.20;;
38162;SDS011;23977;53.078;18.248;2023-10-31T14:12:50;3.17;;;1.58;;
38162;SDS011;23977;53.078;18.248;2023-10-31T14:15:59;3.40;;;1.40;;
38162;SDS011;23977;53.078;18.248;2023-10-31T14:19:14;4.13;;;1.23;;
38162;SDS011;23977;53.078;18.248;2023-10-31T14:22:05;3.97;;;1.40;;
38162;SDS011;23977;53.078;18.248;2023-10-31T14:24:52;2.22;;;1.00;;
38162;SDS011;23977;53.078;18.248;2023-10-31T14:27:57;2.42;;;0.98;;
38162;SDS011;23977;53.078;18.248;2023-10-31T14:30:59;2.75;;;1.00;;
38162;SDS011;23977;53.078;18.248;2023-10-31T14:34:48;1.85;;;0.93;;
38162;SDS011;23977;53.078;18.248;2023-10-31T14:40:37;2.25;;;1.10;;
38162;SDS011;23977;53.078;18.248;2023-10-31T14:43:08;4.18;;;1.10;;
38162;SDS011;23977;53.078;18.248;2023-10-31T14:45:45;3.05;;;1.00;;
38162;SDS011;23977;53.078;18.248;2023-10-31T14:48:14;1.95;;;1.10;;
38162;SDS011;23977;53.078;18.248;2023-10-31T14:50:43;2.13;;;1.20;;
38162;SDS011;23977;53.078;18.248;2023-10-31T14:53:16;2.85;;;1.20;;
38162;SDS011;23977;53.078;18.248;2023-10-31T14:55:46;2.97;;;1.70;;
38162;SDS011;23977;53.078;18.248;2023-10-31T14:58:14;3.92;;;2.00;;
38162;SDS011;23977;53.078;18.248;2023-10-31T15:00:41;2.60;;;1.52;;
38162;SDS011;23977;53.078;18.248;2023-10-31T15:03:10;4.03;;;1.40;;
38162;SDS011;23977;53.078;18.248;2023-10-31T15:05:39;3.35;;;1.50;;
38162;SDS011;23977;53.078;18.248;2023-10-31T15:08:08;3.55;;;1.50;;
38162;SDS011;23977;53.078;18.248;2023-10-31T15:10:41;4.70;;;2.65;;
38162;SDS011;23977;53.078;18.248;2023-10-31T15:13:09;4.50;;;2.30;;
38162;SDS011;23977;53.078;18.248;2023-10-31T15:21:41;4.95;;;1.50;;
38162;SDS011;23977;53.078;18.248;2023-10-31T15:24:09;2.40;;;1.38;;
38162;SDS011;23977;53.078;18.248;2023-10-31T16:40:14;5.82;;;2.15;;
38162;SDS011;23977;53.078;18.248;2023-10-31T16:42:40;4.50;;;2.40;;
38162;SDS011;23977;53.078;18.248;2023-10-31T16:45:10;3.58;;;2.17;;
38162;SDS011;23977;53.078;18.248;2023-10-31T16:47:38;4.53;;;2.30;;
38162;SDS011;23977;53.078;18.248;2023-10-31T16:50:05;3.88;;;2.30;;
38162;SDS011;23977;53.078;18.248;2023-10-31T16:55:02;5.27;;;2.57;;
38162;SDS011;23977;53.078;18.248;2023-10-31T16:58:04;4.05;;;2.35;;
38162;SDS011;23977;53.078;18.248;2023-10-31T17:00:42;4.20;;;2.28;;
38162;SDS011;23977;53.078;18.248;2023-10-31T17:03:09;3.85;;;2.10;;
38162;SDS011;23977;53.078;18.248;2023-10-31T17:05:38;5.05;;;2.25;;
38162;SDS011;23977;53.078;18.248;2023-10-31T17:08:15;3.75;;;2.20;;
38162;SDS011;23977;53.078;18.248;2023-10-31T17:11:05;4.07;;;2.20;;
38162;SDS011;23977;53.078;18.248;2023-10-31T17:13:31;4.35;;;2.20;;
38162;SDS011;23977;53.078;18.248;2023-10-31T17:16:02;4.50;;;2.22;;
38162;SDS011;23977;53.078;18.248;2023-10-31T17:23:51;3.90;;;2.13;;
38162;SDS011;23977;53.078;18.248;2023-10-31T17:26:31;5.18;;;2.40;;
38162;SDS011;23977;53.078;18.248;2023-10-31T17:29:00;4.40;;;2.20;;
38162;SDS011;23977;53.078;18.248;2023-10-31T17:31:27;4.40;;;2.45;;
38162;SDS011;23977;53.078;18.248;2023-10-31T17:33:53;4.55;;;2.30;;
38162;SDS011;23977;53.078;18.248;2023-10-31T17:36:23;4.15;;;1.80;;
38162;SDS011;23977;53.078;18.248;2023-10-31T17:38:50;5.72;;;2.20;;
38162;SDS011;23977;53.078;18.248;2023-10-31T17:41:19;3.72;;;1.98;;
38162;SDS011;23977;53.078;18.248;2023-10-31T17:43:45;4.22;;;1.80;;
38162;SDS011;23977;53.078;18.248;2023-10-31T17:46:35;3.30;;;1.70;;
38162;SDS011;23977;53.078;18.248;2023-10-31T17:49:01;3.55;;;1.80;;
38162;SDS011;23977;53.078;18.248;2023-10-31T17:51:27;2.95;;;1.70;;
38162;SDS011;23977;53.078;18.248;2023-10-31T17:53:53;4.20;;;1.88;;
38162;SDS011;23977;53.078;18.248;2023-10-31T17:56:19;3.95;;;2.30;;
38162;SDS011;23977;53.078;18.248;2023-10-31T17:58:46;5.07;;;1.65;;
38162;SDS011;23977;53.078;18.248;2023-10-31T18:01:16;3.35;;;1.50;;
38162;SDS011;23977;53.078;18.248;2023-10-31T18:03:43;2.95;;;1.50;;
38162;SDS011;23977;53.078;18.248;2023-10-31T18:06:12;2.72;;;1.40;;
38162;SDS011;23977;53.078;18.248;2023-10-31T18:08:38;3.80;;;1.40;;
38162;SDS011;23977;53.078;18.248;2023-10-31T18:11:05;4.18;;;1.45;;
38162;SDS011;23977;53.078;18.248;2023-10-31T18:13:35;2.45;;;1.30;;
38162;SDS011;23977;53.078;18.248;2023-10-31T18:16:01;3.55;;;1.40;;
38162;SDS011;23977;53.078;18.248;2023-10-31T18:18:28;3.38;;;1.63;;
38162;SDS011;23977;53.078;18.248;2023-10-31T18:20:57;3.58;;;1.40;;
38162;SDS011;23977;53.078;18.248;2023-10-31T18:23:27;3.42;;;1.52;;
38162;SDS011;23977;53.078;18.248;2023-10-31T18:25:56;3.90;;;1.70;;
38162;SDS011;23977;53.078;18.248;2023-10-31T18:28:22;2.95;;;1.58;;
38162;SDS011;23977;53.078;18.248;2023-10-31T18:30:55;3.35;;;1.70;;
38162;SDS011;23977;53.078;18.248;2023-10-31T18:33:21;2.80;;;1.48;;
38162;SDS011;23977;53.078;18.248;2023-10-31T18:35:50;3.45;;;1.55;;
38162;SDS011;23977;53.078;18.248;2023-10-31T18:38:16;4.95;;;1.58;;
38162;SDS011;23977;53.078;18.248;2023-10-31T18:40:42;3.72;;;1.50;;
38162;SDS011;23977;53.078;18.248;2023-10-31T18:43:08;3.65;;;1.90;;
38162;SDS011;23977;53.078;18.248;2023-10-31T18:45:38;2.45;;;1.35;;
38162;SDS011;23977;53.078;18.248;2023-10-31T18:48:07;4.30;;;1.65;;
38162;SDS011;23977;53.078;18.248;2023-10-31T18:50:35;3.17;;;1.60;;
38162;SDS011;23977;53.078;18.248;2023-10-31T18:53:07;4.28;;;1.60;;
38162;SDS011;23977;53.078;18.248;2023-10-31T18:55:33;3.35;;;1.70;;
38162;SDS011;23977;53.078;18.248;2023-10-31T18:57:59;3.53;;;1.63;;
38162;SDS011;23977;53.078;18.248;2023-10-31T19:00:27;5.50;;;1.80;;
38162;SDS011;23977;53.078;18.248;2023-10-31T19:02:53;3.88;;;1.50;;
38162;SDS011;23977;53.078;18.248;2023-10-31T19:05:20;3.50;;;1.60;;
38162;SDS011;23977;53.078;18.248;2023-10-31T19:07:46;3.78;;;1.48;;
38162;SDS011;23977;53.078;18.248;2023-10-31T19:10:12;3.08;;;1.63;;
38162;SDS011;23977;53.078;18.248;2023-10-31T19:12:40;3.35;;;1.48;;
38162;SDS011;23977;53.078;18.248;2023-10-31T19:15:06;3.42;;;1.48;;
38162;SDS011;23977;53.078;18.248;2023-10-31T19:17:33;2.80;;;1.58;;
38162;SDS011;23977;53.078;18.248;2023-10-31T19:19:59;4.95;;;1.50;;
38162;SDS011;23977;53.078;18.248;2023-10-31T19:22:25;3.50;;;1.30;;
38162;SDS011;23977;53.078;18.248;2023-10-31T19:24:59;3.80;;;1.48;;
38162;SDS011;23977;53.078;18.248;2023-10-31T19:27:27;3.00;;;1.30;;
38162;SDS011;23977;53.078;18.248;2023-10-31T19:29:54;4.38;;;1.63;;
38162;SDS011;23977;53.078;18.248;2023-10-31T19:32:22;4.00;;;1.65;;
38162;SDS011;23977;53.078;18.248;2023-10-31T19:34:49;3.15;;;1.80;;
38162;SDS011;23977;53.078;18.248;2023-10-31T19:37:17;3.13;;;1.67;;
38162;SDS011;23977;53.078;18.248;2023-10-31T19:39:43;4.07;;;1.35;;
38162;SDS011;23977;53.078;18.248;2023-10-31T19:42:11;4.13;;;1.27;;
38162;SDS011;23977;53.078;18.248;2023-10-31T19:44:39;2.05;;;1.10;;
38162;SDS011;23977;53.078;18.248;2023-10-31T19:47:06;1.63;;;0.90;;
38162;SDS011;23977;53.078;18.248;2023-10-31T19:49:32;2.13;;;0.60;;
38162;SDS011;23977;53.078;18.248;2023-10-31T19:51:59;1.27;;;0.60;;
38162;SDS011;23977;53.078;18.248;2023-10-31T19:54:28;2.55;;;0.60;;
38162;SDS011;23977;53.078;18.248;2023-10-31T19:56:56;1.50;;;0.70;;
38162;SDS011;23977;53.078;18.248;2023-10-31T20:01:58;1.85;;;0.60;;
38162;SDS011;23977;53.078;18.248;2023-10-31T20:04:45;1.50;;;0.60;;
38162;SDS011;23977;53.078;18.248;2023-10-31T20:07:15;1.45;;;0.65;;
38162;SDS011;23977;53.078;18.248;2023-10-31T20:09:44;2.63;;;0.60;;
38162;SDS011;23977;53.078;18.248;2023-10-31T20:12:11;2.78;;;0.77;;
38162;SDS011;23977;53.078;18.248;2023-10-31T20:14:37;1.30;;;0.70;;
38162;SDS011;23977;53.078;18.248;2023-10-31T20:17:03;1.23;;;0.52;;
38162;SDS011;23977;53.078;18.248;2023-10-31T20:19:30;2.33;;;0.80;;
38162;SDS011;23977;53.078;18.248;2023-10-31T20:22:12;3.22;;;0.95;;
38162;SDS011;23977;53.078;18.248;2023-10-31T20:24:38;2.13;;;0.90;;
38162;SDS011;23977;53.078;18.248;2023-10-31T20:27:05;4.30;;;1.00;;
38162;SDS011;23977;53.078;18.248;2023-10-31T20:29:33;1.38;;;0.80;;
38162;SDS011;23977;53.078;18.248;2023-10-31T20:32:01;2.63;;;1.00;;
38162;SDS011;23977;53.078;18.248;2023-10-31T20:34:27;1.80;;;0.90;;
38162;SDS011;23977;53.078;18.248;2023-10-31T20:36:53;2.72;;;0.90;;
38162;SDS011;23977;53.078;18.248;2023-10-31T20:39:29;3.20;;;1.20;;
38162;SDS011;23977;53.078;18.248;2023-10-31T20:41:55;2.28;;;0.90;;
38162;SDS011;23977;53.078;18.248;2023-10-31T20:44:24;2.28;;;1.10;;
38162;SDS011;23977;53.078;18.248;2023-10-31T20:46:51;2.78;;;0.98;;
38162;SDS011;23977;53.078;18.248;2023-10-31T20:49:18;2.28;;;0.90;;
38162;SDS011;23977;53.078;18.248;2023-10-31T20:51:45;2.15;;;0.80;;
38162;SDS011;23977;53.078;18.248;2023-10-31T20:54:14;2.55;;;0.80;;
38162;SDS011;23977;53.078;18.248;2023-10-31T20:56:41;1.92;;;0.70;;
38162;SDS011;23977;53.078;18.248;2023-10-31T20:59:07;3.10;;;0.90;;
38162;SDS011;23977;53.078;18.248;2023-10-31T21:01:38;1.05;;;0.52;;
38162;SDS011;23977;53.078;18.248;2023-10-31T21:04:04;3.17;;;0.80;;
38162;SDS011;23977;53.078;18.248;2023-10-31T21:06:34;1.67;;;0.80;;
38162;SDS011;23977;53.078;18.248;2023-10-31T21:09:02;2.20;;;0.70;;
38162;SDS011;23977;53.078;18.248;2023-10-31T21:11:31;2.00;;;0.80;;
38162;SDS011;23977;53.078;18.248;2023-10-31T21:14:05;1.70;;;0.65;;
38162;SDS011;23977;53.078;18.248;2023-10-31T21:16:32;2.03;;;0.60;;
38162;SDS011;23977;53.078;18.248;2023-10-31T21:19:00;1.63;;;0.70;;
38162;SDS011;23977;53.078;18.248;2023-10-31T21:21:27;1.63;;;0.70;;
38162;SDS011;23977;53.078;18.248;2023-10-31T21:23:54;1.35;;;0.60;;
38162;SDS011;23977;53.078;18.248;2023-10-31T21:26:25;2.33;;;0.90;;
38162;SDS011;23977;53.078;18.248;2023-10-31T21:28:51;2.45;;;0.80;;
38162;SDS011;23977;53.078;18.248;2023-10-31T21:31:19;1.40;;;0.70;;
38162;SDS011;23977;53.078;18.248;2023-10-31T21:33:49;1.50;;;0.90;;
38162;SDS011;23977;53.078;18.248;2023-10-31T21:36:16;3.83;;;1.25;;
38162;SDS011;23977;53.078;18.248;2023-10-31T21:38:43;2.92;;;1.05;;
38162;SDS011;23977;53.078;18.248;2023-10-31T21:41:09;2.47;;;1.00;;
38162;SDS011;23977;53.078;18.248;2023-10-31T21:43:35;3.15;;;1.10;;
38162;SDS011;23977;53.078;18.248;2023-10-31T21:46:03;2.05;;;1.08;;
38162;SDS011;23977;53.078;18.248;2023-10-31T21:48:30;2.53;;;1.00;;
38162;SDS011;23977;53.078;18.248;2023-10-31T21:51:02;2.10;;;0.98;;
38162;SDS011;23977;53.078;18.248;2023-10-31T21:53:28;1.85;;;0.90;;
38162;SDS011;23977;53.078;18.248;2023-10-31T21:55:54;2.50;;;0.70;;
38162;SDS011;23977;53.078;18.248;2023-10-31T21:58:22;1.75;;;0.70;;
38162;SDS011;23977;53.078;18.248;2023-10-31T22:00:53;2.47;;;0.90;;
38162;SDS011;23977;53.078;18.248;2023-10-31T22:03:28;3.00;;;0.88;;
38162;SDS011;23977;53.078;18.248;2023-10-31T22:05:55;1.55;;;0.80;;
38162;SDS011;23977;53.078;18.248;2023-10-31T22:08:24;1.63;;;0.75;;
38162;SDS011;23977;53.078;18.248;2023-10-31T22:10:52;2.22;;;0.80;;
38162;SDS011;23977;53.078;18.248;2023-10-31T22:13:18;2.10;;;0.90;;
38162;SDS011;23977;53.078;18.248;2023-10-31T22:16:08;1.83;;;0.80;;
38162;SDS011;23977;53.078;18.248;2023-10-31T22:18:47;1.67;;;0.60;;
38162;SDS011;23977;53.078;18.248;2023-10-31T22:21:21;1.60;;;0.80;;
38162;SDS011;23977;53.078;18.248;2023-10-31T22:23:51;2.88;;;1.10;;
38162;SDS011;23977;53.078;18.248;2023-10-31T22:26:17;2.25;;;1.10;;
38162;SDS011;23977;53.078;18.248;2023-10-31T22:28:48;1.58;;;0.90;;
38162;SDS011;23977;53.078;18.248;2023-10-31T22:31:18;2.13;;;1.08;;
38162;SDS011;23977;53.078;18.248;2023-10-31T22:34:01;3.50;;;1.05;;
38162;SDS011;23977;53.078;18.248;2023-10-31T22:36:28;2.63;;;1.10;;
38162;SDS011;23977;53.078;18.248;2023-10-31T22:38:57;1.92;;;0.90;;
38162;SDS011;23977;53.078;18.248;2023-10-31T22:41:25;1.42;;;0.70;;
38162;SDS011;23977;53.078;18.248;2023-10-31T22:43:52;2.13;;;0.90;;
38162;SDS011;23977;53.078;18.248;2023-10-31T22:46:19;1.75;;;0.77;;
38162;SDS011;23977;53.078;18.248;2023-10-31T22:48:52;3.75;;;0.90;;
38162;SDS011;23977;53.078;18.248;2023-10-31T22:51:18;2.30;;;0.90;;
38162;SDS011;23977;53.078;18.248;2023-10-31T22:53:46;2.67;;;1.00;;
38162;SDS011;23977;53.078;18.248;2023-10-31T22:56:12;4.60;;;1.20;;
38162;SDS011;23977;53.078;18.248;2023-10-31T22:58:39;5.82;;;1.30;;
38162;SDS011;23977;53.078;18.248;2023-10-31T23:01:13;3.63;;;1.20;;
38162;SDS011;23977;53.078;18.248;2023-10-31T23:04:00;3.88;;;1.20;;
38162;SDS011;23977;53.078;18.248;2023-10-31T23:06:28;2.28;;;1.20;;
38162;SDS011;23977;53.078;18.248;2023-10-31T23:08:57;2.47;;;1.10;;
38162;SDS011;23977;53.078;18.248;2023-10-31T23:11:24;2.85;;;1.27;;
38162;SDS011;23977;53.078;18.248;2023-10-31T23:13:53;3.03;;;1.08;;
38162;SDS011;23977;53.078;18.248;2023-10-31T23:16:19;2.35;;;0.90;;
38162;SDS011;23977;53.078;18.248;2023-10-31T23:18:51;1.92;;;0.80;;
38162;SDS011;23977;53.078;18.248;2023-10-31T23:21:20;2.22;;;0.80;;
38162;SDS011;23977;53.078;18.248;2023-10-31T23:23:53;2.67;;;0.95;;
38162;SDS011;23977;53.078;18.248;2023-10-31T23:26:19;2.17;;;0.90;;
38162;SDS011;23977;53.078;18.248;2023-10-31T23:28:46;4.10;;;0.73;;
38162;SDS011;23977;53.078;18.248;2023-10-31T23:31:13;1.98;;;0.70;;
38162;SDS011;23977;53.078;18.248;2023-10-31T23:33:39;2.10;;;0.70;;
38162;SDS011;23977;53.078;18.248;2023-10-31T23:36:06;2.03;;;0.90;;
38162;SDS011;23977;53.078;18.248;2023-10-31T23:38:34;2.80;;;0.70;;
38162;SDS011;23977;53.078;18.248;2023-10-31T23:41:05;1.70;;;0.70;;
38162;SDS011;23977;53.078;18.248;2023-10-31T23:43:39;1.95;;;0.50;;
38162;SDS011;23977;53.078;18.248;2023-10-31T23:46:08;1.35;;;0.52;;
38162;SDS011;23977;53.078;18.248;2023-10-31T23:48:47;1.40;;;0.63;;
38162;SDS011;23977;53.078;18.248;2023-10-31T23:51:19;1.45;;;0.65;;
38162;SDS011;23977;53.078;18.248;2023-10-31T23:53:48;3.28;;;0.70;;
38162;SDS011;23977;53.078;18.248;2023-10-31T23:56:15;1.55;;;0.70;;
38162;SDS011;23977;53.078;18.248;2023-10-31T23:58:41;2.45;;;0.60;;
